sensor_id;sensor_type;location;lat;lon;timestamp;P1;durP1;ratioP1;P2;durP2;ratioP2
21862;SDS011;11096;51.338;12.524;2023-02-15T00:01:49;34.53;;;13.82;;
21862;SDS011;11096;51.338;12.524;2023-02-15T00:04:17;34.10;;;14.68;;
21862;SDS011;11096;51.338;12.524;2023-02-15T00:06:44;29.10;;;12.70;;
21862;SDS011;11096;51.338;12.524;2023-02-15T00:09:10;32.63;;;14.00;;
21862;SDS011;11096;51.338;12.524;2023-02-15T00:11:36;32.60;;;12.77;;
21862;SDS011;11096;51.338;12.524;2023-02-15T00:14:08;31.88;;;13.77;;
21862;SDS011;11096;51.338;12.524;2023-02-15T00:16:41;32.28;;;14.38;;
21862;SDS011;11096;51.338;12.524;2023-02-15T00:19:08;39.28;;;14.77;;
21862;SDS011;11096;51.338;12.524;2023-02-15T00:21:35;34.47;;;13.77;;
21862;SDS011;11096;51.338;12.524;2023-02-15T00:24:02;30.02;;;14.02;;
21862;SDS011;11096;51.338;12.524;2023-02-15T00:26:28;31.83;;;13.23;;
21862;SDS011;11096;51.338;12.524;2023-02-15T00:28:55;33.60;;;13.38;;
21862;SDS011;11096;51.338;12.524;2023-02-15T00:31:21;36.90;;;14.30;;
21862;SDS011;11096;51.338;12.524;2023-02-15T00:33:46;36.60;;;13.90;;
21862;SDS011;11096;51.338;12.524;2023-02-15T00:36:12;38.22;;;15.43;;
21862;SDS011;11096;51.338;12.524;2023-02-15T00:38:38;37.30;;;15.07;;
21862;SDS011;11096;51.338;12.524;2023-02-15T00:41:05;31.83;;;13.93;;
21862;SDS011;11096;51.338;12.524;2023-02-15T00:43:32;36.95;;;15.43;;
21862;SDS011;11096;51.338;12.524;2023-02-15T00:45:58;32.38;;;13.95;;
21862;SDS011;11096;51.338;12.524;2023-02-15T00:48:24;29.67;;;13.18;;
21862;SDS011;11096;51.338;12.524;2023-02-15T00:50:51;31.73;;;14.68;;
21862;SDS011;11096;51.338;12.524;2023-02-15T00:53:18;34.38;;;14.43;;
21862;SDS011;11096;51.338;12.524;2023-02-15T00:55:44;39.95;;;15.27;;
21862;SDS011;11096;51.338;12.524;2023-02-15T00:58:10;34.08;;;13.95;;
21862;SDS011;11096;51.338;12.524;2023-02-15T01:00:36;36.78;;;16.02;;
21862;SDS011;11096;51.338;12.524;2023-02-15T01:03:02;35.00;;;14.50;;
21862;SDS011;11096;51.338;12.524;2023-02-15T01:05:28;37.83;;;14.43;;
21862;SDS011;11096;51.338;12.524;2023-02-15T01:07:54;33.67;;;13.43;;
21862;SDS011;11096;51.338;12.524;2023-02-15T01:10:20;31.40;;;13.43;;
21862;SDS011;11096;51.338;12.524;2023-02-15T01:12:46;32.53;;;13.23;;
21862;SDS011;11096;51.338;12.524;2023-02-15T01:15:11;28.25;;;12.20;;
21862;SDS011;11096;51.338;12.524;2023-02-15T01:17:37;33.15;;;13.40;;
21862;SDS011;11096;51.338;12.524;2023-02-15T01:20:02;35.35;;;14.57;;
21862;SDS011;11096;51.338;12.524;2023-02-15T01:22:28;35.15;;;15.07;;
21862;SDS011;11096;51.338;12.524;2023-02-15T01:24:53;34.90;;;14.98;;
21862;SDS011;11096;51.338;12.524;2023-02-15T01:27:19;33.28;;;14.00;;
21862;SDS011;11096;51.338;12.524;2023-02-15T01:29:44;40.15;;;15.23;;
21862;SDS011;11096;51.338;12.524;2023-02-15T01:32:09;40.78;;;15.63;;
21862;SDS011;11096;51.338;12.524;2023-02-15T01:34:35;31.15;;;14.43;;
21862;SDS011;11096;51.338;12.524;2023-02-15T01:37:00;34.72;;;15.32;;
21862;SDS011;11096;51.338;12.524;2023-02-15T01:39:26;37.38;;;15.88;;
21862;SDS011;11096;51.338;12.524;2023-02-15T01:41:51;34.05;;;14.48;;
21862;SDS011;11096;51.338;12.524;2023-02-15T01:49:47;40.13;;;15.80;;
21862;SDS011;11096;51.338;12.524;2023-02-15T01:52:16;39.05;;;16.73;;
21862;SDS011;11096;51.338;12.524;2023-02-15T01:54:43;37.10;;;14.93;;
21862;SDS011;11096;51.338;12.524;2023-02-15T01:57:12;33.38;;;13.98;;
21862;SDS011;11096;51.338;12.524;2023-02-15T01:59:44;28.48;;;13.18;;
21862;SDS011;11096;51.338;12.524;2023-02-15T02:02:14;28.67;;;14.32;;
21862;SDS011;11096;51.338;12.524;2023-02-15T02:04:49;36.08;;;14.60;;
21862;SDS011;11096;51.338;12.524;2023-02-15T02:07:17;35.97;;;14.52;;
21862;SDS011;11096;51.338;12.524;2023-02-15T02:09:47;29.45;;;14.27;;
21862;SDS011;11096;51.338;12.524;2023-02-15T02:12:13;31.15;;;13.25;;
21862;SDS011;11096;51.338;12.524;2023-02-15T02:14:40;33.88;;;13.57;;
21862;SDS011;11096;51.338;12.524;2023-02-15T02:17:10;33.42;;;13.93;;
21862;SDS011;11096;51.338;12.524;2023-02-15T02:44:21;28.48;;;13.15;;
21862;SDS011;11096;51.338;12.524;2023-02-15T02:46:51;25.25;;;12.68;;
21862;SDS011;11096;51.338;12.524;2023-02-15T02:49:31;33.03;;;13.40;;
21862;SDS011;11096;51.338;12.524;2023-02-15T02:52:00;26.15;;;12.05;;
21862;SDS011;11096;51.338;12.524;2023-02-15T02:54:27;28.60;;;12.23;;
21862;SDS011;11096;51.338;12.524;2023-02-15T02:56:54;26.92;;;11.38;;
21862;SDS011;11096;51.338;12.524;2023-02-15T02:59:30;31.95;;;12.63;;
21862;SDS011;11096;51.338;12.524;2023-02-15T03:04:32;19.23;;;9.27;;
21862;SDS011;11096;51.338;12.524;2023-02-15T03:07:07;12.25;;;7.45;;
21862;SDS011;11096;51.338;12.524;2023-02-15T03:09:42;12.20;;;7.25;;
21862;SDS011;11096;51.338;12.524;2023-02-15T03:12:20;16.17;;;9.07;;
21862;SDS011;11096;51.338;12.524;2023-02-15T03:14:49;17.40;;;8.70;;
21862;SDS011;11096;51.338;12.524;2023-02-15T03:17:19;16.98;;;9.02;;
21862;SDS011;11096;51.338;12.524;2023-02-15T03:19:46;17.08;;;8.20;;
21862;SDS011;11096;51.338;12.524;2023-02-15T03:22:18;18.50;;;8.60;;
21862;SDS011;11096;51.338;12.524;2023-02-15T03:27:40;18.50;;;8.77;;
21862;SDS011;11096;51.338;12.524;2023-02-15T03:30:10;13.10;;;7.55;;
21862;SDS011;11096;51.338;12.524;2023-02-15T03:32:39;13.13;;;7.93;;
21862;SDS011;11096;51.338;12.524;2023-02-15T03:35:08;16.67;;;8.73;;
21862;SDS011;11096;51.338;12.524;2023-02-15T03:37:51;17.83;;;8.85;;
21862;SDS011;11096;51.338;12.524;2023-02-15T03:40:43;16.98;;;9.25;;
21862;SDS011;11096;51.338;12.524;2023-02-15T03:48:44;19.50;;;9.85;;
21862;SDS011;11096;51.338;12.524;2023-02-15T03:51:20;27.58;;;10.82;;
21862;SDS011;11096;51.338;12.524;2023-02-15T03:54:15;25.17;;;10.50;;
21862;SDS011;11096;51.338;12.524;2023-02-15T03:57:04;25.80;;;12.02;;
21862;SDS011;11096;51.338;12.524;2023-02-15T03:59:50;26.23;;;11.80;;
21862;SDS011;11096;51.338;12.524;2023-02-15T04:02:37;23.85;;;11.60;;
21862;SDS011;11096;51.338;12.524;2023-02-15T04:05:09;23.17;;;10.88;;
21862;SDS011;11096;51.338;12.524;2023-02-15T04:07:35;27.35;;;11.50;;
21862;SDS011;11096;51.338;12.524;2023-02-15T04:10:00;23.98;;;11.20;;
21862;SDS011;11096;51.338;12.524;2023-02-15T04:12:44;26.17;;;12.55;;
21862;SDS011;11096;51.338;12.524;2023-02-15T04:15:11;24.00;;;11.30;;
21862;SDS011;11096;51.338;12.524;2023-02-15T04:17:55;25.02;;;11.75;;
21862;SDS011;11096;51.338;12.524;2023-02-15T04:20:21;22.15;;;10.77;;
21862;SDS011;11096;51.338;12.524;2023-02-15T04:23:05;25.02;;;10.45;;
21862;SDS011;11096;51.338;12.524;2023-02-15T04:25:50;22.35;;;12.23;;
21862;SDS011;11096;51.338;12.524;2023-02-15T04:28:15;26.80;;;11.30;;
21862;SDS011;11096;51.338;12.524;2023-02-15T04:30:40;24.38;;;11.35;;
21862;SDS011;11096;51.338;12.524;2023-02-15T04:33:06;22.88;;;11.93;;
21862;SDS011;11096;51.338;12.524;2023-02-15T04:35:31;24.20;;;11.18;;
21862;SDS011;11096;51.338;12.524;2023-02-15T04:37:58;23.77;;;9.38;;
21862;SDS011;11096;51.338;12.524;2023-02-15T04:40:24;21.63;;;9.68;;
21862;SDS011;11096;51.338;12.524;2023-02-15T04:42:49;25.02;;;11.73;;
21862;SDS011;11096;51.338;12.524;2023-02-15T04:45:15;21.92;;;10.50;;
21862;SDS011;11096;51.338;12.524;2023-02-15T04:47:40;27.92;;;11.65;;
21862;SDS011;11096;51.338;12.524;2023-02-15T04:50:06;22.75;;;10.77;;
21862;SDS011;11096;51.338;12.524;2023-02-15T04:52:32;20.73;;;11.13;;
21862;SDS011;11096;51.338;12.524;2023-02-15T04:54:57;22.48;;;9.80;;
21862;SDS011;11096;51.338;12.524;2023-02-15T04:57:23;27.27;;;10.75;;
21862;SDS011;11096;51.338;12.524;2023-02-15T04:59:48;23.38;;;11.23;;
21862;SDS011;11096;51.338;12.524;2023-02-15T05:02:13;26.08;;;11.18;;
21862;SDS011;11096;51.338;12.524;2023-02-15T05:04:39;22.95;;;10.15;;
21862;SDS011;11096;51.338;12.524;2023-02-15T05:07:04;20.75;;;9.70;;
21862;SDS011;11096;51.338;12.524;2023-02-15T05:09:30;25.63;;;10.80;;
21862;SDS011;11096;51.338;12.524;2023-02-15T05:11:55;29.55;;;11.02;;
21862;SDS011;11096;51.338;12.524;2023-02-15T05:14:21;28.02;;;10.88;;
21862;SDS011;11096;51.338;12.524;2023-02-15T05:16:46;20.90;;;10.18;;
21862;SDS011;11096;51.338;12.524;2023-02-15T05:19:11;25.08;;;11.20;;
21862;SDS011;11096;51.338;12.524;2023-02-15T05:21:37;19.25;;;9.57;;
21862;SDS011;11096;51.338;12.524;2023-02-15T05:24:02;19.92;;;9.80;;
21862;SDS011;11096;51.338;12.524;2023-02-15T05:26:48;20.95;;;9.63;;
21862;SDS011;11096;51.338;12.524;2023-02-15T05:29:32;20.95;;;10.43;;
21862;SDS011;11096;51.338;12.524;2023-02-15T05:31:57;23.77;;;10.43;;
21862;SDS011;11096;51.338;12.524;2023-02-15T05:34:22;17.88;;;8.77;;
21862;SDS011;11096;51.338;12.524;2023-02-15T05:36:48;21.02;;;10.18;;
21862;SDS011;11096;51.338;12.524;2023-02-15T05:39:13;22.73;;;8.90;;
21862;SDS011;11096;51.338;12.524;2023-02-15T05:41:38;21.60;;;10.18;;
21862;SDS011;11096;51.338;12.524;2023-02-15T05:44:04;22.15;;;10.20;;
21862;SDS011;11096;51.338;12.524;2023-02-15T05:46:29;21.30;;;9.90;;
21862;SDS011;11096;51.338;12.524;2023-02-15T05:48:55;19.30;;;9.80;;
21862;SDS011;11096;51.338;12.524;2023-02-15T05:51:20;23.02;;;9.82;;
21862;SDS011;11096;51.338;12.524;2023-02-15T05:53:45;18.15;;;8.80;;
21862;SDS011;11096;51.338;12.524;2023-02-15T05:56:11;18.30;;;9.73;;
21862;SDS011;11096;51.338;12.524;2023-02-15T05:58:40;19.35;;;9.55;;
21862;SDS011;11096;51.338;12.524;2023-02-15T06:01:10;20.70;;;9.43;;
21862;SDS011;11096;51.338;12.524;2023-02-15T06:03:37;19.05;;;8.90;;
21862;SDS011;11096;51.338;12.524;2023-02-15T06:06:03;21.77;;;9.18;;
21862;SDS011;11096;51.338;12.524;2023-02-15T06:08:29;20.80;;;8.63;;
21862;SDS011;11096;51.338;12.524;2023-02-15T06:10:55;20.33;;;8.70;;
21862;SDS011;11096;51.338;12.524;2023-02-15T06:13:21;19.60;;;9.57;;
21862;SDS011;11096;51.338;12.524;2023-02-15T06:15:46;22.67;;;10.23;;
21862;SDS011;11096;51.338;12.524;2023-02-15T06:18:11;21.50;;;9.15;;
21862;SDS011;11096;51.338;12.524;2023-02-15T06:20:37;23.38;;;9.80;;
21862;SDS011;11096;51.338;12.524;2023-02-15T06:23:02;20.35;;;8.88;;
21862;SDS011;11096;51.338;12.524;2023-02-15T06:25:28;19.98;;;9.43;;
21862;SDS011;11096;51.338;12.524;2023-02-15T06:27:53;19.55;;;9.25;;
21862;SDS011;11096;51.338;12.524;2023-02-15T06:30:19;21.80;;;9.65;;
21862;SDS011;11096;51.338;12.524;2023-02-15T06:32:44;18.75;;;9.23;;
21862;SDS011;11096;51.338;12.524;2023-02-15T06:35:10;18.42;;;7.70;;
21862;SDS011;11096;51.338;12.524;2023-02-15T06:37:36;17.05;;;8.18;;
21862;SDS011;11096;51.338;12.524;2023-02-15T06:40:02;19.70;;;8.57;;
21862;SDS011;11096;51.338;12.524;2023-02-15T06:42:29;19.17;;;8.85;;
21862;SDS011;11096;51.338;12.524;2023-02-15T06:44:55;25.88;;;8.68;;
21862;SDS011;11096;51.338;12.524;2023-02-15T06:47:20;19.23;;;9.15;;
21862;SDS011;11096;51.338;12.524;2023-02-15T06:49:46;17.77;;;8.90;;
21862;SDS011;11096;51.338;12.524;2023-02-15T06:52:11;17.55;;;9.50;;
21862;SDS011;11096;51.338;12.524;2023-02-15T06:54:37;21.30;;;8.95;;
21862;SDS011;11096;51.338;12.524;2023-02-15T06:57:02;18.38;;;8.55;;
21862;SDS011;11096;51.338;12.524;2023-02-15T06:59:27;19.00;;;8.60;;
21862;SDS011;11096;51.338;12.524;2023-02-15T07:01:53;21.85;;;9.18;;
21862;SDS011;11096;51.338;12.524;2023-02-15T07:04:18;17.40;;;8.90;;
21862;SDS011;11096;51.338;12.524;2023-02-15T07:06:44;18.00;;;8.05;;
21862;SDS011;11096;51.338;12.524;2023-02-15T07:09:10;18.27;;;9.13;;
21862;SDS011;11096;51.338;12.524;2023-02-15T07:11:35;17.48;;;8.15;;
21862;SDS011;11096;51.338;12.524;2023-02-15T07:14:19;18.92;;;8.85;;
21862;SDS011;11096;51.338;12.524;2023-02-15T07:16:45;17.75;;;8.05;;
21862;SDS011;11096;51.338;12.524;2023-02-15T07:19:10;18.80;;;8.45;;
21862;SDS011;11096;51.338;12.524;2023-02-15T07:21:35;19.00;;;8.80;;
21862;SDS011;11096;51.338;12.524;2023-02-15T07:24:01;17.58;;;8.32;;
21862;SDS011;11096;51.338;12.524;2023-02-15T07:26:28;17.45;;;8.50;;
21862;SDS011;11096;51.338;12.524;2023-02-15T07:28:53;19.02;;;9.10;;
21862;SDS011;11096;51.338;12.524;2023-02-15T07:31:19;20.77;;;8.63;;
21862;SDS011;11096;51.338;12.524;2023-02-15T07:33:44;16.02;;;8.18;;
21862;SDS011;11096;51.338;12.524;2023-02-15T07:36:10;18.73;;;8.25;;
21862;SDS011;11096;51.338;12.524;2023-02-15T07:38:38;16.40;;;8.23;;
21862;SDS011;11096;51.338;12.524;2023-02-15T07:41:06;17.20;;;7.90;;
21862;SDS011;11096;51.338;12.524;2023-02-15T07:43:34;19.02;;;8.10;;
21862;SDS011;11096;51.338;12.524;2023-02-15T07:46:01;20.33;;;8.93;;
21862;SDS011;11096;51.338;12.524;2023-02-15T07:48:29;17.60;;;7.72;;
21862;SDS011;11096;51.338;12.524;2023-02-15T07:50:58;14.38;;;7.30;;
21862;SDS011;11096;51.338;12.524;2023-02-15T07:53:24;14.90;;;8.30;;
21862;SDS011;11096;51.338;12.524;2023-02-15T07:55:50;18.02;;;8.18;;
21862;SDS011;11096;51.338;12.524;2023-02-15T07:58:15;14.75;;;8.20;;
21862;SDS011;11096;51.338;12.524;2023-02-15T08:00:40;19.20;;;9.57;;
21862;SDS011;11096;51.338;12.524;2023-02-15T08:03:24;16.70;;;8.23;;
21862;SDS011;11096;51.338;12.524;2023-02-15T08:05:54;17.27;;;7.57;;
21862;SDS011;11096;51.338;12.524;2023-02-15T08:08:22;17.13;;;7.78;;
21862;SDS011;11096;51.338;12.524;2023-02-15T08:10:59;18.55;;;8.35;;
21862;SDS011;11096;51.338;12.524;2023-02-15T08:13:48;15.32;;;7.72;;
21862;SDS011;11096;51.338;12.524;2023-02-15T08:16:20;16.35;;;8.20;;
21862;SDS011;11096;51.338;12.524;2023-02-15T08:18:45;14.63;;;7.63;;
21862;SDS011;11096;51.338;12.524;2023-02-15T08:21:10;16.25;;;7.68;;
21862;SDS011;11096;51.338;12.524;2023-02-15T08:23:36;15.88;;;8.02;;
21862;SDS011;11096;51.338;12.524;2023-02-15T08:26:01;10.82;;;6.45;;
21862;SDS011;11096;51.338;12.524;2023-02-15T08:28:26;14.60;;;7.28;;
21862;SDS011;11096;51.338;12.524;2023-02-15T08:30:52;16.58;;;7.47;;
21862;SDS011;11096;51.338;12.524;2023-02-15T08:33:17;11.95;;;7.00;;
21862;SDS011;11096;51.338;12.524;2023-02-15T08:35:42;10.63;;;6.55;;
21862;SDS011;11096;51.338;12.524;2023-02-15T08:38:08;16.33;;;7.30;;
21862;SDS011;11096;51.338;12.524;2023-02-15T08:40:33;13.45;;;6.88;;
21862;SDS011;11096;51.338;12.524;2023-02-15T08:42:59;10.98;;;6.32;;
21862;SDS011;11096;51.338;12.524;2023-02-15T08:45:25;12.45;;;6.05;;
21862;SDS011;11096;51.338;12.524;2023-02-15T08:47:50;10.05;;;5.80;;
21862;SDS011;11096;51.338;12.524;2023-02-15T08:50:15;8.27;;;4.85;;
21862;SDS011;11096;51.338;12.524;2023-02-15T08:52:41;9.77;;;4.82;;
21862;SDS011;11096;51.338;12.524;2023-02-15T08:55:06;9.55;;;4.80;;
21862;SDS011;11096;51.338;12.524;2023-02-15T08:57:32;12.40;;;5.70;;
21862;SDS011;11096;51.338;12.524;2023-02-15T08:59:57;8.02;;;5.32;;
21862;SDS011;11096;51.338;12.524;2023-02-15T09:02:23;7.80;;;4.88;;
21862;SDS011;11096;51.338;12.524;2023-02-15T09:04:48;9.07;;;4.90;;
21862;SDS011;11096;51.338;12.524;2023-02-15T09:07:13;9.50;;;4.50;;
21862;SDS011;11096;51.338;12.524;2023-02-15T09:09:39;6.88;;;4.18;;
21862;SDS011;11096;51.338;12.524;2023-02-15T09:12:04;8.65;;;4.65;;
21862;SDS011;11096;51.338;12.524;2023-02-15T09:14:30;7.32;;;4.80;;
21862;SDS011;11096;51.338;12.524;2023-02-15T09:16:55;8.77;;;4.20;;
21862;SDS011;11096;51.338;12.524;2023-02-15T09:19:21;7.38;;;4.35;;
21862;SDS011;11096;51.338;12.524;2023-02-15T09:21:47;13.18;;;4.88;;
21862;SDS011;11096;51.338;12.524;2023-02-15T09:24:14;6.93;;;4.30;;
21862;SDS011;11096;51.338;12.524;2023-02-15T09:26:41;7.18;;;4.22;;
21862;SDS011;11096;51.338;12.524;2023-02-15T09:29:08;6.15;;;3.83;;
21862;SDS011;11096;51.338;12.524;2023-02-15T09:31:39;7.18;;;3.95;;
21862;SDS011;11096;51.338;12.524;2023-02-15T09:34:09;6.18;;;4.07;;
21862;SDS011;11096;51.338;12.524;2023-02-15T09:36:36;6.03;;;4.07;;
21862;SDS011;11096;51.338;12.524;2023-02-15T09:39:07;6.95;;;4.45;;
21862;SDS011;11096;51.338;12.524;2023-02-15T09:44:18;5.03;;;3.90;;
21862;SDS011;11096;51.338;12.524;2023-02-15T09:57:27;4.88;;;3.50;;
21862;SDS011;11096;51.338;12.524;2023-02-15T10:05:53;6.53;;;4.32;;
21862;SDS011;11096;51.338;12.524;2023-02-15T10:08:39;6.65;;;4.40;;
21862;SDS011;11096;51.338;12.524;2023-02-15T10:11:34;7.82;;;4.38;;
21862;SDS011;11096;51.338;12.524;2023-02-15T10:17:06;6.25;;;4.03;;
21862;SDS011;11096;51.338;12.524;2023-02-15T10:25:18;4.00;;;3.08;;
21862;SDS011;11096;51.338;12.524;2023-02-15T10:27:49;5.25;;;3.45;;
21862;SDS011;11096;51.338;12.524;2023-02-15T10:30:20;4.93;;;3.40;;
21862;SDS011;11096;51.338;12.524;2023-02-15T10:33:00;6.88;;;3.33;;
21862;SDS011;11096;51.338;12.524;2023-02-15T10:38:14;3.92;;;3.08;;
21862;SDS011;11096;51.338;12.524;2023-02-15T10:54:21;3.60;;;2.53;;
21862;SDS011;11096;51.338;12.524;2023-02-15T11:05:24;3.65;;;2.67;;
21862;SDS011;11096;51.338;12.524;2023-02-15T11:07:52;4.63;;;3.05;;
21862;SDS011;11096;51.338;12.524;2023-02-15T11:10:25;3.47;;;2.22;;
21862;SDS011;11096;51.338;12.524;2023-02-15T11:12:51;2.85;;;2.50;;
21862;SDS011;11096;51.338;12.524;2023-02-15T11:17:58;3.58;;;2.42;;
21862;SDS011;11096;51.338;12.524;2023-02-15T11:20:52;4.50;;;2.63;;
21862;SDS011;11096;51.338;12.524;2023-02-15T11:23:26;5.93;;;3.00;;
21862;SDS011;11096;51.338;12.524;2023-02-15T11:25:59;6.03;;;2.60;;
21862;SDS011;11096;51.338;12.524;2023-02-15T11:31:19;3.65;;;3.03;;
21862;SDS011;11096;51.338;12.524;2023-02-15T11:33:48;4.70;;;2.90;;
21862;SDS011;11096;51.338;12.524;2023-02-15T11:36:20;4.18;;;2.97;;
21862;SDS011;11096;51.338;12.524;2023-02-15T11:38:49;4.20;;;3.20;;
21862;SDS011;11096;51.338;12.524;2023-02-15T11:41:22;6.10;;;3.17;;
21862;SDS011;11096;51.338;12.524;2023-02-15T11:43:59;4.10;;;2.80;;
21862;SDS011;11096;51.338;12.524;2023-02-15T11:46:31;4.28;;;2.58;;
21862;SDS011;11096;51.338;12.524;2023-02-15T11:48:57;4.25;;;2.55;;
21862;SDS011;11096;51.338;12.524;2023-02-15T11:51:23;4.22;;;2.83;;
21862;SDS011;11096;51.338;12.524;2023-02-15T11:53:52;3.80;;;3.00;;
21862;SDS011;11096;51.338;12.524;2023-02-15T11:56:26;3.50;;;2.33;;
21862;SDS011;11096;51.338;12.524;2023-02-15T11:58:58;3.65;;;2.25;;
21862;SDS011;11096;51.338;12.524;2023-02-15T12:01:30;3.90;;;3.00;;
21862;SDS011;11096;51.338;12.524;2023-02-15T12:03:58;3.40;;;2.70;;
21862;SDS011;11096;51.338;12.524;2023-02-15T12:06:45;6.55;;;2.55;;
21862;SDS011;11096;51.338;12.524;2023-02-15T12:09:36;3.78;;;2.53;;
21862;SDS011;11096;51.338;12.524;2023-02-15T12:12:19;3.75;;;2.80;;
21862;SDS011;11096;51.338;12.524;2023-02-15T12:14:56;4.93;;;2.92;;
21862;SDS011;11096;51.338;12.524;2023-02-15T12:17:24;4.78;;;2.97;;
21862;SDS011;11096;51.338;12.524;2023-02-15T12:19:54;4.15;;;2.80;;
21862;SDS011;11096;51.338;12.524;2023-02-15T12:22:23;5.93;;;2.70;;
21862;SDS011;11096;51.338;12.524;2023-02-15T12:25:02;3.00;;;2.63;;
21862;SDS011;11096;51.338;12.524;2023-02-15T12:27:45;4.57;;;3.00;;
21862;SDS011;11096;51.338;12.524;2023-02-15T12:30:29;6.35;;;2.75;;
21862;SDS011;11096;51.338;12.524;2023-02-15T12:32:56;4.18;;;2.80;;
21862;SDS011;11096;51.338;12.524;2023-02-15T12:35:29;3.70;;;2.33;;
21862;SDS011;11096;51.338;12.524;2023-02-15T12:37:59;5.55;;;2.95;;
21862;SDS011;11096;51.338;12.524;2023-02-15T12:40:29;3.67;;;2.75;;
21862;SDS011;11096;51.338;12.524;2023-02-15T12:42:56;3.70;;;2.47;;
21862;SDS011;11096;51.338;12.524;2023-02-15T12:45:29;4.75;;;3.20;;
21862;SDS011;11096;51.338;12.524;2023-02-15T12:48:12;5.68;;;3.00;;
21862;SDS011;11096;51.338;12.524;2023-02-15T12:50:41;4.30;;;2.53;;
21862;SDS011;11096;51.338;12.524;2023-02-15T12:53:15;4.85;;;2.65;;
21862;SDS011;11096;51.338;12.524;2023-02-15T12:56:05;4.93;;;2.85;;
21862;SDS011;11096;51.338;12.524;2023-02-15T12:58:33;4.60;;;2.72;;
21862;SDS011;11096;51.338;12.524;2023-02-15T13:01:10;4.35;;;2.58;;
21862;SDS011;11096;51.338;12.524;2023-02-15T13:06:20;4.97;;;2.83;;
21862;SDS011;11096;51.338;12.524;2023-02-15T13:08:47;6.18;;;3.42;;
21862;SDS011;11096;51.338;12.524;2023-02-15T13:11:19;4.60;;;2.55;;
21862;SDS011;11096;51.338;12.524;2023-02-15T13:13:53;3.63;;;2.25;;
21862;SDS011;11096;51.338;12.524;2023-02-15T13:16:24;4.32;;;2.40;;
21862;SDS011;11096;51.338;12.524;2023-02-15T13:18:56;5.18;;;2.53;;
21862;SDS011;11096;51.338;12.524;2023-02-15T13:21:26;4.72;;;2.35;;
21862;SDS011;11096;51.338;12.524;2023-02-15T13:24:05;4.40;;;2.55;;
21862;SDS011;11096;51.338;12.524;2023-02-15T13:26:40;4.80;;;2.72;;
21862;SDS011;11096;51.338;12.524;2023-02-15T13:29:12;3.42;;;2.60;;
21862;SDS011;11096;51.338;12.524;2023-02-15T13:31:43;3.80;;;2.65;;
21862;SDS011;11096;51.338;12.524;2023-02-15T13:34:14;3.67;;;2.80;;
21862;SDS011;11096;51.338;12.524;2023-02-15T13:39:38;4.43;;;2.80;;
21862;SDS011;11096;51.338;12.524;2023-02-15T13:42:19;4.82;;;3.08;;
21862;SDS011;11096;51.338;12.524;2023-02-15T13:56:28;8.68;;;2.35;;
21862;SDS011;11096;51.338;12.524;2023-02-15T14:01:50;4.38;;;2.33;;
21862;SDS011;11096;51.338;12.524;2023-02-15T14:26:31;4.10;;;2.40;;
21862;SDS011;11096;51.338;12.524;2023-02-15T14:31:52;2.95;;;2.10;;
21862;SDS011;11096;51.338;12.524;2023-02-15T14:34:25;3.15;;;1.95;;
21862;SDS011;11096;51.338;12.524;2023-02-15T14:36:57;2.53;;;1.83;;
21862;SDS011;11096;51.338;12.524;2023-02-15T14:45:49;5.82;;;2.10;;
21862;SDS011;11096;51.338;12.524;2023-02-15T14:48:24;3.15;;;1.83;;
21862;SDS011;11096;51.338;12.524;2023-02-15T14:50:55;2.25;;;1.83;;
21862;SDS011;11096;51.338;12.524;2023-02-15T14:56:05;2.35;;;1.50;;
21862;SDS011;11096;51.338;12.524;2023-02-15T15:01:30;1.55;;;1.38;;
21862;SDS011;11096;51.338;12.524;2023-02-15T15:04:02;2.10;;;1.50;;
21862;SDS011;11096;51.338;12.524;2023-02-15T15:06:33;3.10;;;1.85;;
21862;SDS011;11096;51.338;12.524;2023-02-15T15:09:11;4.38;;;1.88;;
21862;SDS011;11096;51.338;12.524;2023-02-15T15:11:45;3.17;;;2.17;;
21862;SDS011;11096;51.338;12.524;2023-02-15T15:16:56;2.85;;;1.95;;
21862;SDS011;11096;51.338;12.524;2023-02-15T15:22:28;3.83;;;1.80;;
21862;SDS011;11096;51.338;12.524;2023-02-15T15:24:56;5.97;;;2.33;;
21862;SDS011;11096;51.338;12.524;2023-02-15T15:32:44;3.35;;;2.00;;
21862;SDS011;11096;51.338;12.524;2023-02-15T15:41:27;2.83;;;2.25;;
21862;SDS011;11096;51.338;12.524;2023-02-15T15:49:20;4.68;;;2.53;;
21862;SDS011;11096;51.338;12.524;2023-02-15T15:51:49;4.95;;;2.28;;
21862;SDS011;11096;51.338;12.524;2023-02-15T15:54:22;3.78;;;2.47;;
21862;SDS011;11096;51.338;12.524;2023-02-15T15:56:55;4.68;;;2.67;;
21862;SDS011;11096;51.338;12.524;2023-02-15T15:59:27;3.10;;;2.47;;
21862;SDS011;11096;51.338;12.524;2023-02-15T16:01:54;4.20;;;2.53;;
21862;SDS011;11096;51.338;12.524;2023-02-15T16:06:50;3.88;;;2.60;;
21862;SDS011;11096;51.338;12.524;2023-02-15T16:09:17;5.85;;;3.10;;
21862;SDS011;11096;51.338;12.524;2023-02-15T16:11:46;4.88;;;2.70;;
21862;SDS011;11096;51.338;12.524;2023-02-15T16:14:15;4.15;;;2.55;;
21862;SDS011;11096;51.338;12.524;2023-02-15T16:16:51;5.25;;;2.80;;
21862;SDS011;11096;51.338;12.524;2023-02-15T16:19:20;7.70;;;3.15;;
21862;SDS011;11096;51.338;12.524;2023-02-15T16:21:49;10.23;;;2.45;;
21862;SDS011;11096;51.338;12.524;2023-02-15T16:24:22;4.93;;;2.72;;
21862;SDS011;11096;51.338;12.524;2023-02-15T16:27:42;4.80;;;2.83;;
21862;SDS011;11096;51.338;12.524;2023-02-15T16:29:57;6.07;;;3.08;;
21862;SDS011;11096;51.338;12.524;2023-02-15T16:32:23;7.43;;;3.08;;
21862;SDS011;11096;51.338;12.524;2023-02-15T16:34:51;3.78;;;2.55;;
21862;SDS011;11096;51.338;12.524;2023-02-15T16:37:22;4.90;;;2.60;;
21862;SDS011;11096;51.338;12.524;2023-02-15T16:39:51;5.22;;;3.15;;
21862;SDS011;11096;51.338;12.524;2023-02-15T16:42:18;5.10;;;2.83;;
21862;SDS011;11096;51.338;12.524;2023-02-15T16:45:05;7.47;;;3.33;;
21862;SDS011;11096;51.338;12.524;2023-02-15T16:47:36;6.50;;;3.00;;
21862;SDS011;11096;51.338;12.524;2023-02-15T16:50:06;5.03;;;2.90;;
21862;SDS011;11096;51.338;12.524;2023-02-15T16:52:43;11.52;;;3.78;;
21862;SDS011;11096;51.338;12.524;2023-02-15T16:55:20;6.93;;;3.50;;
21862;SDS011;11096;51.338;12.524;2023-02-15T16:57:47;4.90;;;3.10;;
21862;SDS011;11096;51.338;12.524;2023-02-15T17:00:18;6.00;;;2.97;;
21862;SDS011;11096;51.338;12.524;2023-02-15T17:03:22;4.85;;;3.15;;
21862;SDS011;11096;51.338;12.524;2023-02-15T17:08:06;9.27;;;4.10;;
21862;SDS011;11096;51.338;12.524;2023-02-15T17:10:36;8.82;;;4.28;;
21862;SDS011;11096;51.338;12.524;2023-02-15T17:13:10;8.15;;;4.60;;
21862;SDS011;11096;51.338;12.524;2023-02-15T17:15:43;8.85;;;4.07;;
21862;SDS011;11096;51.338;12.524;2023-02-15T17:18:29;7.32;;;3.90;;
21862;SDS011;11096;51.338;12.524;2023-02-15T17:21:13;6.63;;;2.90;;
21862;SDS011;11096;51.338;12.524;2023-02-15T17:23:45;5.78;;;2.80;;
21862;SDS011;11096;51.338;12.524;2023-02-15T17:26:20;7.07;;;3.65;;
21862;SDS011;11096;51.338;12.524;2023-02-15T17:28:48;7.57;;;3.58;;
21862;SDS011;11096;51.338;12.524;2023-02-15T17:31:17;7.07;;;2.85;;
21862;SDS011;11096;51.338;12.524;2023-02-15T17:33:44;7.05;;;3.50;;
21862;SDS011;11096;51.338;12.524;2023-02-15T17:39:22;6.55;;;3.40;;
21862;SDS011;11096;51.338;12.524;2023-02-15T17:41:45;10.25;;;7.20;;
21862;SDS011;11096;51.338;12.524;2023-02-15T17:44:12;5.05;;;3.55;;
21862;SDS011;11096;51.338;12.524;2023-02-15T17:46:40;5.30;;;3.25;;